createdAt,value
2016-06-20T00:00:18.149Z,0
2016-06-20T00:01:17.543Z,0
2016-06-20T00:02:18.156Z,0
2016-06-20T00:03:18.112Z,0
2016-06-20T00:04:18.069Z,0
2016-06-20T00:05:18.073Z,0
2016-06-20T00:06:18.076Z,0
2016-06-20T00:07:17.376Z,0
2016-06-20T00:08:17.989Z,0
2016-06-20T00:09:17.946Z,0
2016-06-20T00:10:17.933Z,0
2016-06-20T00:11:17.906Z,0
2016-06-20T00:12:17.893Z,0
2016-06-20T00:13:17.865Z,0
2016-06-20T00:14:17.822Z,0
2016-06-20T00:15:17.826Z,0
2016-06-20T00:16:17.798Z,0
2016-06-20T00:17:17.754Z,0
2016-06-20T00:18:17.743Z,0
2016-06-20T00:19:17.715Z,0
2016-06-20T00:20:17.718Z,0
2016-06-20T00:21:17.690Z,0
2016-06-20T00:22:17.647Z,0
2016-06-20T00:23:17.635Z,0
2016-06-20T00:24:17.592Z,0
2016-06-20T00:25:17.579Z,0
2016-06-20T00:26:17.551Z,0
2016-06-20T00:27:17.540Z,0
2016-06-20T00:28:17.512Z,0
2016-06-20T00:29:17.484Z,0
2016-06-20T00:30:16.893Z,0
2016-06-20T00:31:16.834Z,0
2016-06-20T00:32:17.432Z,0
2016-06-20T00:33:17.388Z,0
2016-06-20T00:34:17.360Z,0
2016-06-20T00:35:17.364Z,0
2016-06-20T00:36:17.337Z,0
2016-06-20T00:37:17.309Z,0
2016-06-20T00:38:17.296Z,0
2016-06-20T00:39:17.253Z,0
2016-06-20T00:40:17.272Z,0
2016-06-20T00:41:17.212Z,0
2016-06-20T00:42:16.591Z,0
2016-06-20T00:43:17.173Z,0
2016-06-20T00:44:17.145Z,0
2016-06-20T00:45:17.118Z,0
2016-06-20T00:46:17.090Z,0
2016-06-20T00:47:17.062Z,0
2016-06-20T00:48:17.034Z,0
2016-06-20T00:49:17.022Z,0
2016-06-20T00:50:17.009Z,0
2016-06-20T00:51:16.997Z,0
2016-06-20T00:52:16.953Z,0
2016-06-20T00:53:16.942Z,0
2016-06-20T00:54:16.913Z,0
2016-06-20T00:55:16.902Z,0
2016-06-20T00:56:16.858Z,0
2016-06-20T00:57:16.846Z,0
2016-06-20T00:58:16.802Z,0
2016-06-20T00:59:16.791Z,0
2016-06-20T01:00:16.779Z,0
2016-06-20T01:01:16.157Z,0
2016-06-20T01:02:16.723Z,0
2016-06-20T01:03:16.711Z,0
2016-06-20T01:04:16.683Z,0
2016-06-20T01:05:16.640Z,0
2016-06-20T01:06:16.627Z,0
2016-06-20T01:07:16.600Z,0
2016-06-20T01:08:16.572Z,0
2016-06-20T01:09:16.544Z,0
2016-06-20T01:10:16.532Z,0
2016-06-20T01:11:16.505Z,0
2016-06-20T01:12:16.476Z,0
2016-06-20T01:13:16.464Z,0
2016-06-20T01:14:16.437Z,0
2016-06-20T01:15:16.409Z,0
2016-06-20T01:16:16.397Z,0
2016-06-20T01:17:16.368Z,0
2016-06-20T01:18:15.731Z,0
2016-06-20T01:19:16.360Z,0
2016-06-20T01:20:16.317Z,0
2016-06-20T01:21:16.273Z,0
2016-06-20T01:22:16.245Z,0
2016-06-20T01:23:16.233Z,0
2016-06-20T01:24:16.222Z,0
2016-06-20T01:25:15.568Z,0
2016-06-20T01:26:16.165Z,0
2016-06-20T01:27:16.138Z,0
2016-06-20T01:28:16.126Z,0
2016-06-20T01:29:16.114Z,0
2016-06-20T01:30:16.070Z,0
2016-06-20T01:31:16.042Z,0
2016-06-20T01:32:16.015Z,0
2016-06-20T01:33:16.003Z,0
2016-06-20T01:34:15.974Z,0
2016-06-20T01:35:15.930Z,0
2016-06-20T01:36:15.919Z,0
2016-06-20T01:37:15.907Z,0
2016-06-20T01:38:15.863Z,0
2016-06-20T01:39:15.852Z,0
2016-06-20T01:40:15.839Z,0
2016-06-20T01:41:15.826Z,0
2016-06-20T01:42:15.784Z,0
2016-06-20T01:43:15.771Z,0
2016-06-20T01:44:15.744Z,0
2016-06-20T01:45:15.700Z,0
2016-06-20T01:46:15.687Z,0
2016-06-20T01:47:15.676Z,0
2016-06-20T01:48:15.663Z,0
2016-06-20T01:49:15.636Z,0
2016-06-20T01:50:15.604Z,0
2016-06-20T01:51:15.592Z,0
2016-06-20T01:52:15.549Z,0
2016-06-20T01:53:15.505Z,0
2016-06-20T01:54:15.509Z,0
2016-06-20T01:55:15.466Z,0
2016-06-20T01:56:15.454Z,0
2016-06-20T01:57:15.425Z,0
2016-06-20T01:58:14.804Z,0
2016-06-20T01:59:15.401Z,0
2016-06-20T02:00:15.343Z,0
2016-06-20T02:01:15.346Z,0
2016-06-20T02:02:15.317Z,0
2016-06-20T02:03:15.306Z,0
2016-06-20T02:04:15.246Z,0
2016-06-20T02:05:15.249Z,0
2016-06-20T02:06:15.206Z,0
2016-06-20T02:07:15.179Z,0
2016-06-20T02:08:13.948Z,0
2016-06-20T02:09:14.561Z,0
2016-06-20T02:10:14.517Z,0
2016-06-20T02:11:15.084Z,0
2016-06-20T02:12:15.134Z,0
2016-06-20T02:13:15.059Z,0
2016-06-20T02:14:15.016Z,0
2016-06-20T02:15:14.988Z,0
2016-06-20T02:16:14.976Z,0
2016-06-20T02:17:15.010Z,0
2016-06-20T02:18:14.920Z,0
2016-06-20T02:19:14.908Z,0
2016-06-20T02:20:14.911Z,0
2016-06-20T02:21:14.868Z,0
2016-06-20T02:22:14.839Z,0
2016-06-20T02:23:14.812Z,0
2016-06-20T02:24:14.816Z,0
2016-06-20T02:25:14.772Z,0
2016-06-20T02:26:14.728Z,0
2016-06-20T02:27:14.717Z,0
2016-06-20T02:28:14.689Z,0
2016-06-20T02:29:14.661Z,0
2016-06-20T02:30:14.650Z,0
2016-06-20T02:31:14.621Z,0
2016-06-20T02:32:14.609Z,0
2016-06-20T02:33:14.566Z,0
2016-06-20T02:34:14.569Z,0
2016-06-20T02:35:14.541Z,0
2016-06-20T02:36:14.498Z,0
2016-06-20T02:37:14.470Z,0
2016-06-20T02:38:14.458Z,0
2016-06-20T02:39:14.430Z,0
2016-06-20T02:40:14.401Z,0
2016-06-20T02:41:13.796Z,0
2016-06-20T02:42:14.363Z,0
2016-06-20T02:43:14.334Z,0
2016-06-20T02:44:14.307Z,0
2016-06-20T02:45:13.685Z,0
2016-06-20T02:46:14.267Z,0
2016-06-20T02:47:14.239Z,0
2016-06-20T02:48:14.226Z,0
2016-06-20T02:49:14.199Z,0
2016-06-20T02:50:13.562Z,0
2016-06-20T02:51:14.143Z,0
2016-06-20T02:52:14.115Z,0
2016-06-20T02:53:14.088Z,0
2016-06-20T02:54:14.075Z,0
2016-06-20T02:55:14.047Z,0
2016-06-20T02:56:13.426Z,0
2016-06-20T02:57:13.997Z,0
2016-06-20T02:58:13.977Z,0
2016-06-20T02:59:13.974Z,0
2016-06-20T03:00:13.970Z,0
2016-06-20T03:01:13.966Z,5
2016-06-20T03:02:13.913Z,5
2016-06-20T03:03:13.903Z,5
2016-06-20T03:04:13.879Z,5
2016-06-20T03:05:13.839Z,5
2016-06-20T03:06:13.830Z,5
2016-06-20T03:07:13.820Z,5
2016-06-20T03:08:13.840Z,5
2016-06-20T03:09:13.156Z,5
2016-06-20T03:10:13.771Z,5
2016-06-20T03:11:13.729Z,10
2016-06-20T03:12:12.483Z,10
2016-06-20T03:13:13.673Z,10
2016-06-20T03:14:12.444Z,10
2016-06-20T03:15:13.635Z,10
2016-06-20T03:16:13.591Z,15
2016-06-20T03:17:13.580Z,15
2016-06-20T03:18:13.584Z,15
2016-06-20T03:19:12.932Z,15
2016-06-20T03:20:13.497Z,15
2016-06-20T03:21:13.486Z,15
2016-06-20T03:22:13.489Z,20
2016-06-20T03:23:13.431Z,20
2016-06-20T03:24:13.418Z,20
2016-06-20T03:25:13.391Z,20
2016-06-20T03:26:13.378Z,25
2016-06-20T03:27:13.336Z,25
2016-06-20T03:28:13.323Z,25
2016-06-20T03:29:13.310Z,25
2016-06-20T03:30:13.299Z,30
2016-06-20T03:31:13.255Z,30
2016-06-20T03:32:13.227Z,30
2016-06-20T03:33:13.199Z,30
2016-06-20T03:34:12.563Z,35
2016-06-20T03:35:13.144Z,35
2016-06-20T03:36:13.131Z,35
2016-06-20T03:37:13.104Z,40
2016-06-20T03:38:12.466Z,40
2016-06-20T03:39:13.064Z,40
2016-06-20T03:40:13.068Z,40
2016-06-20T03:41:13.009Z,40
2016-06-20T03:42:12.981Z,45
2016-06-20T03:43:12.969Z,45
2016-06-20T03:44:12.940Z,45
2016-06-20T03:45:12.898Z,50
2016-06-20T03:46:12.277Z,50
2016-06-20T03:47:12.857Z,50
2016-06-20T03:48:12.845Z,55
2016-06-20T03:49:12.817Z,55
2016-06-20T03:50:12.196Z,55
2016-06-20T03:51:12.168Z,60
2016-06-20T03:52:12.734Z,60
2016-06-20T03:53:12.721Z,60
2016-06-20T03:54:12.710Z,60
2016-06-20T03:55:12.682Z,65
2016-06-20T03:56:12.654Z,70
2016-06-20T03:57:12.642Z,70
2016-06-20T03:58:12.614Z,70
2016-06-20T03:59:11.992Z,70
2016-06-20T04:00:12.543Z,70
2016-06-20T04:01:12.531Z,75
2016-06-20T04:02:12.502Z,85
2016-06-20T04:03:12.475Z,85
2016-06-20T04:04:12.463Z,85
2016-06-20T04:05:11.826Z,85
2016-06-20T04:06:11.813Z,90
2016-06-20T04:07:12.394Z,90
2016-06-20T04:08:12.367Z,90
2016-06-20T04:09:12.324Z,90
2016-06-20T04:10:12.327Z,90
2016-06-20T04:11:11.706Z,95
2016-06-20T04:12:12.272Z,95
2016-06-20T04:13:12.244Z,95
2016-06-20T04:14:12.232Z,100
2016-06-20T04:15:12.205Z,100
2016-06-20T04:16:12.161Z,100
2016-06-20T04:17:12.165Z,100
2016-06-20T04:18:12.137Z,100
2016-06-20T04:19:12.108Z,105
2016-06-20T04:20:12.081Z,110
2016-06-20T04:21:12.054Z,105
2016-06-20T04:22:11.462Z,105
2016-06-20T04:23:11.419Z,110
2016-06-20T04:24:11.985Z,110
2016-06-20T04:25:11.973Z,110
2016-06-20T04:26:11.960Z,115
2016-06-20T04:27:11.918Z,115
2016-06-20T04:28:11.905Z,120
2016-06-20T04:29:11.878Z,120
2016-06-20T04:30:11.849Z,120
2016-06-20T04:31:11.838Z,120
2016-06-20T04:32:11.811Z,125
2016-06-20T04:33:11.814Z,125
2016-06-20T04:34:11.754Z,125
2016-06-20T04:35:11.132Z,125
2016-06-20T04:36:11.730Z,130
2016-06-20T04:37:11.702Z,130
2016-06-20T04:38:11.659Z,135
2016-06-20T04:39:11.646Z,135
2016-06-20T04:40:11.041Z,135
2016-06-20T04:41:11.591Z,140
2016-06-20T04:42:11.563Z,140
2016-06-20T04:43:11.551Z,145
2016-06-20T04:44:11.539Z,145
2016-06-20T04:45:11.526Z,150
2016-06-20T04:46:11.484Z,150
2016-06-20T04:47:11.471Z,155
2016-06-20T04:48:11.444Z,155
2016-06-20T04:49:11.415Z,165
2016-06-20T04:50:11.403Z,165
2016-06-20T04:51:11.360Z,170
2016-06-20T04:52:11.348Z,175
2016-06-20T04:53:11.319Z,185
2016-06-20T04:54:11.307Z,190
2016-06-20T04:55:11.280Z,200
2016-06-20T04:56:11.252Z,225
2016-06-20T04:57:11.239Z,310
2016-06-20T04:58:11.228Z,305
2016-06-20T04:59:11.184Z,405
2016-06-20T05:00:09.953Z,480
2016-06-20T05:01:11.145Z,420
2016-06-20T05:02:11.132Z,330
2016-06-20T05:03:11.105Z,235
2016-06-20T05:04:11.061Z,430
2016-06-20T05:05:11.064Z,445
2016-06-20T05:06:11.037Z,455
2016-06-20T05:07:11.010Z,455
2016-06-20T05:08:10.997Z,465
2016-06-20T05:09:10.984Z,475
2016-06-20T05:10:10.957Z,430
2016-06-20T05:11:10.913Z,325
2016-06-20T05:12:10.948Z,315
2016-06-20T05:13:10.905Z,340
2016-06-20T05:14:10.876Z,225
2016-06-20T05:15:10.865Z,210
2016-06-20T05:16:10.837Z,205
2016-06-20T05:17:10.856Z,215
2016-06-20T05:18:10.813Z,270
2016-06-20T05:19:10.160Z,530
2016-06-20T05:20:10.757Z,570
2016-06-20T05:21:10.745Z,585
2016-06-20T05:22:10.701Z,585
2016-06-20T05:23:10.704Z,540
2016-06-20T05:24:10.099Z,475
2016-06-20T05:25:10.664Z,585
2016-06-20T05:26:10.637Z,590
2016-06-20T05:27:10.015Z,490
2016-06-20T05:28:10.613Z,335
2016-06-20T05:29:10.585Z,255
2016-06-20T05:30:10.557Z,235
2016-06-20T05:31:10.576Z,225
2016-06-20T05:32:10.533Z,220
2016-06-20T05:33:10.505Z,225
2016-06-20T05:34:10.492Z,225
2016-06-20T05:35:09.887Z,230
2016-06-20T05:36:10.469Z,235
2016-06-20T05:37:10.425Z,240
2016-06-20T05:38:10.414Z,245
2016-06-20T05:39:10.432Z,245
2016-06-20T05:40:10.388Z,255
2016-06-20T05:41:10.361Z,265
2016-06-20T05:42:10.348Z,285
2016-06-20T05:43:10.337Z,300
2016-06-20T05:44:10.309Z,380
2016-06-20T05:45:10.296Z,475
2016-06-20T05:46:10.269Z,580
2016-06-20T05:47:10.273Z,680
2016-06-20T05:48:10.244Z,775
2016-06-20T05:49:10.216Z,840
2016-06-20T05:50:09.595Z,890
2016-06-20T05:51:10.176Z,895
2016-06-20T05:52:09.555Z,905
2016-06-20T05:53:10.136Z,905
2016-06-20T05:54:10.109Z,905
2016-06-20T05:55:10.112Z,905
2016-06-20T05:56:09.507Z,900
2016-06-20T05:57:10.072Z,890
2016-06-20T05:58:10.044Z,850
2016-06-20T05:59:10.361Z,825
2016-06-20T06:00:09.410Z,810
2016-06-20T06:01:09.993Z,815
2016-06-20T06:02:10.012Z,860
2016-06-20T06:03:09.984Z,910
2016-06-20T06:04:09.956Z,965
2016-06-20T06:05:09.944Z,1020
2016-06-20T06:06:09.306Z,1065
2016-06-20T06:07:09.904Z,1075
2016-06-20T06:08:09.892Z,1070
2016-06-20T06:09:09.880Z,1065
2016-06-20T06:10:09.867Z,1055
2016-06-20T06:11:09.870Z,1065
2016-06-20T06:12:09.859Z,1040
2016-06-20T06:13:09.815Z,1030
2016-06-20T06:14:09.803Z,1015
2016-06-20T06:15:09.806Z,985
2016-06-20T06:16:09.795Z,985
2016-06-20T06:17:09.767Z,1030
2016-06-20T06:18:09.769Z,1105
2016-06-20T06:19:09.759Z,1160
2016-06-20T06:20:09.746Z,1175
2016-06-20T06:21:09.718Z,1170
2016-06-20T06:22:09.706Z,1170
2016-06-20T06:23:09.709Z,1155
2016-06-20T06:24:09.698Z,1190
2016-06-20T06:25:09.669Z,1230
2016-06-20T06:26:09.063Z,1275
2016-06-20T06:27:09.676Z,1305
2016-06-20T06:28:09.649Z,1265
2016-06-20T06:29:09.652Z,1255
2016-06-20T06:30:09.624Z,1250
2016-06-20T06:31:09.628Z,1275
2016-06-20T06:32:09.600Z,1240
2016-06-20T06:33:09.588Z,1225
2016-06-20T06:34:09.591Z,1210
2016-06-20T06:35:08.969Z,1235
2016-06-20T06:36:08.942Z,1270
2016-06-20T06:37:09.554Z,1320
2016-06-20T06:38:09.558Z,1325
2016-06-20T06:39:09.545Z,1280
2016-06-20T06:40:09.534Z,1290
2016-06-20T06:41:09.506Z,1250
2016-06-20T06:42:09.524Z,1245
2016-06-20T06:43:09.497Z,1275
2016-06-20T06:44:09.516Z,1250
2016-06-20T06:45:09.474Z,1295
2016-06-20T06:46:09.492Z,1320
2016-06-20T06:47:09.464Z,1390
2016-06-20T06:48:08.843Z,1405
2016-06-20T06:49:09.455Z,1435
2016-06-20T06:50:09.444Z,1450
2016-06-20T06:51:09.431Z,1460
2016-06-20T06:52:09.420Z,1415
2016-06-20T06:53:09.423Z,1475
2016-06-20T06:54:09.426Z,1490
2016-06-20T06:55:09.445Z,1490
2016-06-20T06:56:09.386Z,1430
2016-06-20T06:57:09.405Z,1290
2016-06-20T06:58:09.377Z,1175
2016-06-20T06:59:09.365Z,1040
2016-06-20T07:00:09.384Z,1220
2016-06-20T07:01:09.357Z,1375
2016-06-20T07:02:09.345Z,1415
2016-06-20T07:03:09.347Z,1440
2016-06-20T07:04:09.336Z,1370
2016-06-20T07:05:09.340Z,1300
2016-06-20T07:06:09.327Z,1290
2016-06-20T07:07:09.330Z,1275
2016-06-20T07:08:09.303Z,1290
2016-06-20T07:09:09.322Z,1330
2016-06-20T07:10:09.310Z,1375
2016-06-20T07:11:09.281Z,1430
2016-06-20T07:12:09.270Z,1425
2016-06-20T07:13:09.320Z,1410
2016-06-20T07:14:09.277Z,1370
2016-06-20T07:15:09.280Z,1250
2016-06-20T07:16:09.252Z,1330
2016-06-20T07:17:09.271Z,1210
2016-06-20T07:18:08.635Z,1295
2016-06-20T07:19:08.653Z,1370
2016-06-20T07:20:09.219Z,1430
2016-06-20T07:21:09.238Z,1215
2016-06-20T07:22:08.616Z,1075
2016-06-20T07:23:09.230Z,1410
2016-06-20T07:24:09.218Z,1420
2016-06-20T07:25:09.204Z,1435
2016-06-20T07:26:09.208Z,1500
2016-06-20T07:27:09.196Z,1600
2016-06-20T07:28:09.184Z,1575
2016-06-20T07:29:09.173Z,1535
2016-06-20T07:30:09.182Z,1560
2016-06-20T07:31:09.193Z,1465
2016-06-20T07:32:09.188Z,1505
2016-06-20T07:33:09.183Z,1490
2016-06-20T07:34:09.178Z,1515
2016-06-20T07:35:09.185Z,1405
2016-06-20T07:36:09.206Z,1455
2016-06-20T07:37:09.180Z,1345
2016-06-20T07:38:09.186Z,1380
2016-06-20T07:39:09.176Z,1380
2016-06-20T07:40:09.181Z,1440
2016-06-20T07:41:09.155Z,1460
2016-06-20T07:42:09.159Z,1385
2016-06-20T07:43:08.007Z,1550
2016-06-20T07:44:09.168Z,1185
2016-06-20T07:45:09.157Z,1410
2016-06-20T07:46:07.973Z,1165
2016-06-20T07:47:08.539Z,1360
2016-06-20T07:48:09.153Z,995
2016-06-20T07:49:09.140Z,1565
2016-06-20T07:50:09.113Z,1420
2016-06-20T07:51:09.133Z,1775
2016-06-20T07:52:09.135Z,1785
2016-06-20T07:53:09.108Z,1740
2016-06-20T07:54:09.095Z,1160
2016-06-20T07:55:09.099Z,995
2016-06-20T07:56:09.150Z,1665
2016-06-20T07:57:09.075Z,1905
2016-06-20T07:58:09.094Z,1570
2016-06-20T07:59:09.082Z,1255
2016-06-20T08:00:09.101Z,840
2016-06-20T08:01:09.089Z,1390
2016-06-20T08:02:09.045Z,905
2016-06-20T08:03:08.455Z,825
2016-06-20T08:04:09.052Z,945
2016-06-20T08:05:09.165Z,820
2016-06-20T08:06:09.044Z,895
2016-06-20T08:07:09.031Z,1565
2016-06-20T08:08:09.019Z,1595
2016-06-20T08:09:09.038Z,1400
2016-06-20T08:10:09.010Z,1155
2016-06-20T08:11:08.999Z,735
2016-06-20T08:12:08.986Z,955
2016-06-20T08:13:08.989Z,1280
2016-06-20T08:14:08.993Z,745
2016-06-20T08:15:08.965Z,640
2016-06-20T08:16:08.969Z,665
2016-06-20T08:17:08.363Z,840
2016-06-20T08:18:09.023Z,855
2016-06-20T08:19:08.979Z,855
2016-06-20T08:20:08.967Z,885
2016-06-20T08:21:08.939Z,810
2016-06-20T08:22:08.926Z,925
2016-06-20T08:23:08.915Z,915
2016-06-20T08:24:09.105Z,990
2016-06-20T08:25:08.937Z,790
2016-06-20T08:26:08.893Z,920
2016-06-20T08:27:08.882Z,925
2016-06-20T08:28:08.869Z,1200
2016-06-20T08:29:08.872Z,1255
2016-06-20T08:30:08.860Z,1260
2016-06-20T08:31:08.849Z,1090
2016-06-20T08:32:08.227Z,1100
2016-06-20T08:33:08.855Z,1280
2016-06-20T08:34:08.829Z,1245
2016-06-20T08:35:08.832Z,835
2016-06-20T08:36:08.803Z,730
2016-06-20T08:37:08.806Z,735
2016-06-20T08:38:08.795Z,670
2016-06-20T08:39:08.829Z,1075
2016-06-20T08:40:08.786Z,1215
2016-06-20T08:41:08.774Z,1285
2016-06-20T08:42:08.745Z,1370
2016-06-20T08:43:08.749Z,1260
2016-06-20T08:44:08.738Z,1175
2016-06-20T08:45:08.709Z,1245
2016-06-20T08:46:08.713Z,1535
2016-06-20T08:47:08.701Z,805
2016-06-20T08:48:08.704Z,1470
2016-06-20T08:49:08.692Z,1595
2016-06-20T08:50:08.680Z,1385
2016-06-20T08:51:08.058Z,1570
2016-06-20T08:52:08.672Z,940
2016-06-20T08:53:08.659Z,1440
2016-06-20T08:54:08.662Z,1050
2016-06-20T08:55:08.651Z,1300
2016-06-20T08:56:08.639Z,1615
2016-06-20T08:57:08.642Z,1795
2016-06-20T08:58:08.629Z,800
2016-06-20T08:59:08.602Z,715
2016-06-20T09:00:08.589Z,905
2016-06-20T09:01:08.577Z,685
2016-06-20T09:02:08.581Z,775
2016-06-20T09:03:08.569Z,620
2016-06-20T09:04:07.947Z,560
2016-06-20T09:05:08.592Z,565
2016-06-20T09:06:08.563Z,555
2016-06-20T09:07:08.552Z,640
2016-06-20T09:08:07.914Z,520
2016-06-20T09:09:08.511Z,495
2016-06-20T09:10:07.906Z,540
2016-06-20T09:11:08.503Z,625
2016-06-20T09:12:08.491Z,590
2016-06-20T09:13:07.885Z,510
2016-06-20T09:14:08.466Z,550
2016-06-20T09:15:08.454Z,560
2016-06-20T09:16:08.442Z,535
2016-06-20T09:17:07.836Z,620
2016-06-20T09:18:08.433Z,600
2016-06-20T09:19:08.421Z,610
2016-06-20T09:20:08.440Z,705
2016-06-20T09:21:08.397Z,725
2016-06-20T09:22:08.400Z,725
2016-06-20T09:23:08.373Z,710
2016-06-20T09:24:08.360Z,750
2016-06-20T09:25:08.629Z,685
2016-06-20T09:26:07.726Z,670
2016-06-20T09:27:08.324Z,650
2016-06-20T09:28:08.311Z,600
2016-06-20T09:29:08.283Z,595
2016-06-20T09:30:08.287Z,610
2016-06-20T09:31:08.290Z,610
2016-06-20T09:32:08.263Z,620
2016-06-20T09:33:08.251Z,620
2016-06-20T09:34:08.253Z,635
2016-06-20T09:35:08.242Z,640
2016-06-20T09:36:08.230Z,645
2016-06-20T09:37:08.202Z,655
2016-06-20T09:38:08.189Z,650
2016-06-20T09:39:08.193Z,640
2016-06-20T09:40:08.165Z,635
2016-06-20T09:41:08.138Z,625
2016-06-20T09:42:08.156Z,620
2016-06-20T09:43:08.145Z,620
2016-06-20T09:44:08.117Z,615
2016-06-20T09:45:08.105Z,615
2016-06-20T09:46:08.124Z,620
2016-06-20T09:47:07.487Z,605
2016-06-20T09:48:08.069Z,605
2016-06-20T09:49:08.056Z,590
2016-06-20T09:50:08.091Z,580
2016-06-20T09:51:08.015Z,585
2016-06-20T09:52:08.019Z,560
2016-06-20T09:53:08.007Z,555
2016-06-20T09:54:07.995Z,545
2016-06-20T09:55:07.983Z,540
2016-06-20T09:56:07.955Z,545
2016-06-20T09:57:07.974Z,535
2016-06-20T09:58:07.947Z,530
2016-06-20T09:59:07.325Z,515
2016-06-20T10:00:07.922Z,495
2016-06-20T10:01:07.910Z,475
2016-06-20T10:02:07.897Z,465
2016-06-20T10:03:07.886Z,435
2016-06-20T10:04:07.889Z,445
2016-06-20T10:05:07.861Z,490
2016-06-20T10:06:07.834Z,525
2016-06-20T10:07:07.837Z,560
2016-06-20T10:08:07.825Z,590
2016-06-20T10:09:07.828Z,615
2016-06-20T10:10:07.786Z,600
2016-06-20T10:11:07.804Z,610
2016-06-20T10:12:07.746Z,620
2016-06-20T10:13:07.749Z,645
2016-06-20T10:14:07.127Z,660
2016-06-20T10:15:07.708Z,655
2016-06-20T10:16:07.697Z,665
2016-06-20T10:17:07.700Z,670
2016-06-20T10:18:07.688Z,670
2016-06-20T10:19:07.660Z,675
2016-06-20T10:20:07.663Z,660
2016-06-20T10:21:07.651Z,670
2016-06-20T10:22:07.623Z,670
2016-06-20T10:23:07.018Z,665
2016-06-20T10:24:07.599Z,665
2016-06-20T10:25:07.602Z,660
2016-06-20T10:26:07.591Z,655
2016-06-20T10:27:07.562Z,655
2016-06-20T10:28:06.940Z,655
2016-06-20T10:29:07.538Z,655
2016-06-20T10:30:07.526Z,665
2016-06-20T10:31:07.545Z,675
2016-06-20T10:32:07.533Z,675
2016-06-20T10:33:07.505Z,665
2016-06-20T10:34:06.962Z,645
2016-06-20T10:35:07.450Z,640
2016-06-20T10:36:07.454Z,630
2016-06-20T10:37:07.441Z,610
2016-06-20T10:38:07.428Z,605
2016-06-20T10:39:07.417Z,560
2016-06-20T10:40:07.404Z,560
2016-06-20T10:41:07.392Z,575
2016-06-20T10:42:07.380Z,580
2016-06-20T10:43:07.353Z,585
2016-06-20T10:44:07.356Z,580
2016-06-20T10:45:07.343Z,535
2016-06-20T10:46:06.113Z,500
2016-06-20T10:47:07.304Z,540
2016-06-20T10:48:07.292Z,540
2016-06-20T10:49:07.296Z,530
2016-06-20T10:50:07.267Z,510
2016-06-20T10:51:07.256Z,470
2016-06-20T10:52:07.368Z,475
2016-06-20T10:53:07.246Z,490
2016-06-20T10:54:06.625Z,470
2016-06-20T10:55:07.378Z,430
2016-06-20T10:56:07.195Z,450
2016-06-20T10:57:07.760Z,445
2016-06-20T10:58:07.170Z,450
2016-06-20T10:59:07.142Z,445
2016-06-20T11:00:07.145Z,450
2016-06-20T11:01:07.118Z,465
2016-06-20T11:02:07.122Z,480
2016-06-20T11:03:07.109Z,460
2016-06-20T11:04:06.487Z,435
2016-06-20T11:05:07.085Z,420
2016-06-20T11:06:07.119Z,435
2016-06-20T11:07:07.186Z,440
2016-06-20T11:08:07.048Z,445
2016-06-20T11:09:07.035Z,445
2016-06-20T11:10:07.024Z,420
2016-06-20T11:11:07.012Z,385
2016-06-20T11:12:07.000Z,355
2016-06-20T11:13:06.971Z,345
2016-06-20T11:14:06.975Z,330
2016-06-20T11:15:06.947Z,315
2016-06-20T11:16:06.951Z,325
2016-06-20T11:17:06.908Z,345
2016-06-20T11:18:06.911Z,355
2016-06-20T11:19:06.945Z,370
2016-06-20T11:20:06.887Z,365
2016-06-20T11:21:06.859Z,375
2016-06-20T11:22:06.831Z,380
2016-06-20T11:23:06.834Z,385
2016-06-20T11:24:06.823Z,385
2016-06-20T11:25:06.795Z,395
2016-06-20T11:26:06.799Z,390
2016-06-20T11:27:06.161Z,375
2016-06-20T11:28:06.758Z,365
2016-06-20T11:29:06.746Z,370
2016-06-20T11:30:06.733Z,375
2016-06-20T11:31:06.722Z,380
2016-06-20T11:32:06.694Z,390
2016-06-20T11:33:06.681Z,405
2016-06-20T11:34:06.091Z,405
2016-06-20T11:35:06.657Z,410
2016-06-20T11:36:06.629Z,415
2016-06-20T11:37:06.633Z,420
2016-06-20T11:38:06.605Z,430
2016-06-20T11:39:06.593Z,430
2016-06-20T11:40:06.565Z,435
2016-06-20T11:41:05.975Z,445
2016-06-20T11:42:06.557Z,455
2016-06-20T11:43:05.936Z,460
2016-06-20T11:44:06.548Z,465
2016-06-20T11:45:06.504Z,460
2016-06-20T11:46:06.493Z,460
2016-06-20T11:47:05.886Z,455
2016-06-20T11:48:06.468Z,450
2016-06-20T11:49:06.456Z,445
2016-06-20T11:50:06.444Z,435
2016-06-20T11:51:06.400Z,430
2016-06-20T11:52:06.403Z,425
2016-06-20T11:53:06.391Z,425
2016-06-20T11:54:05.770Z,410
2016-06-20T11:55:06.352Z,410
2016-06-20T11:56:05.730Z,405
2016-06-20T11:57:06.327Z,405
2016-06-20T11:58:06.299Z,410
2016-06-20T12:11:32.701Z,440
2016-06-20T12:11:44.482Z,445
2016-06-20T12:12:48.206Z,445
2016-06-20T12:13:44.803Z,445
2016-06-20T12:14:44.432Z,445
2016-06-20T12:15:44.420Z,445
2016-06-20T12:16:44.392Z,440
2016-06-20T12:17:44.380Z,430
2016-06-20T12:18:44.399Z,420
2016-06-20T12:19:44.356Z,410
2016-06-20T12:20:44.344Z,405
2016-06-20T12:21:44.801Z,395
2016-06-20T12:22:44.320Z,390
2016-06-20T12:23:44.307Z,385
2016-06-20T12:24:44.296Z,370
2016-06-20T12:25:44.283Z,365
2016-06-20T12:26:44.255Z,355
2016-06-20T12:27:44.259Z,350
2016-06-20T12:28:44.231Z,345
2016-06-20T12:29:43.610Z,340
2016-06-20T12:30:44.191Z,335
2016-06-20T12:31:42.976Z,330
2016-06-20T12:32:43.573Z,325
2016-06-20T12:33:44.171Z,325
2016-06-20T12:34:44.252Z,330
2016-06-20T12:35:42.490Z,335
2016-06-20T12:36:43.010Z,345
2016-06-20T12:37:43.216Z,350
2016-06-20T12:38:44.125Z,365
2016-06-20T12:39:44.082Z,375
2016-06-20T12:40:44.070Z,395
2016-06-20T12:41:43.448Z,395
2016-06-20T12:42:44.060Z,400
2016-06-20T12:43:44.206Z,400
2016-06-20T12:44:42.802Z,410
2016-06-20T12:45:44.008Z,420
2016-06-20T12:46:42.777Z,435
2016-06-20T12:47:42.765Z,450
2016-06-20T12:48:43.348Z,470
2016-06-20T12:49:42.726Z,485
2016-06-20T12:50:43.947Z,455
2016-06-20T12:51:42.108Z,465
2016-06-20T12:52:42.705Z,460
2016-06-20T12:53:43.271Z,455
2016-06-20T12:54:41.461Z,460
2016-06-20T12:55:43.887Z,465
2016-06-20T12:56:42.625Z,470
2016-06-20T12:57:43.847Z,480
2016-06-20T12:58:42.616Z,480
2016-06-20T12:59:43.807Z,485
2016-06-20T13:00:43.201Z,490
2016-06-20T13:01:43.174Z,490
2016-06-20T13:02:42.583Z,500
2016-06-20T13:03:43.758Z,505
2016-06-20T13:04:43.778Z,505
2016-06-20T13:05:43.141Z,495
2016-06-20T13:06:42.488Z,490
2016-06-20T13:07:43.709Z,490
2016-06-20T13:08:42.479Z,490
2016-06-20T13:09:43.686Z,500
2016-06-20T13:10:43.049Z,500
2016-06-20T13:11:43.083Z,485
2016-06-20T13:12:43.633Z,470
2016-06-20T13:13:43.622Z,470
2016-06-20T13:14:43.609Z,460
2016-06-20T13:15:43.566Z,450
2016-06-20T13:16:43.584Z,435
2016-06-20T13:17:43.557Z,425
2016-06-20T13:18:43.545Z,415
2016-06-20T13:20:03.817Z,395
2016-06-20T13:20:43.520Z,370
2016-06-20T13:21:43.493Z,330
2016-06-20T13:22:43.481Z,305
2016-06-20T13:23:43.470Z,290
2016-06-20T13:24:43.473Z,300
2016-06-20T13:25:43.460Z,280
2016-06-20T13:26:43.464Z,280
2016-06-20T13:27:43.420Z,275
2016-06-20T13:28:42.861Z,260
2016-06-20T13:29:43.411Z,260
2016-06-20T13:30:43.384Z,260
2016-06-20T13:31:43.356Z,265
2016-06-20T13:32:43.343Z,265
2016-06-20T13:33:42.738Z,270
2016-06-20T13:34:43.336Z,275
2016-06-20T13:35:43.307Z,275
2016-06-20T13:36:43.279Z,275
2016-06-20T13:37:43.283Z,260
2016-06-20T13:38:42.661Z,250
2016-06-20T13:39:43.259Z,265
2016-06-20T13:40:43.231Z,275
2016-06-20T13:41:43.218Z,270
2016-06-20T13:42:43.206Z,265
2016-06-20T13:43:43.179Z,255
2016-06-20T13:44:43.213Z,235
2016-06-20T13:45:43.201Z,225
2016-06-20T13:46:43.174Z,215
2016-06-20T13:47:45.177Z,205
2016-06-20T13:48:42.898Z,205
2016-06-20T13:49:43.121Z,215
2016-06-20T13:50:43.125Z,225
2016-06-20T13:51:43.112Z,225
2016-06-20T13:52:43.085Z,225
2016-06-20T13:53:43.104Z,220
2016-06-20T13:54:42.482Z,220
2016-06-20T13:55:43.126Z,225
2016-06-20T13:56:43.004Z,225
2016-06-20T13:57:42.383Z,235
2016-06-20T13:58:42.981Z,235
2016-06-20T13:59:43.031Z,240
2016-06-20T14:00:43.769Z,245
2016-06-20T14:01:42.960Z,240
2016-06-20T14:02:42.932Z,240
2016-06-20T14:03:42.889Z,235
2016-06-20T14:04:17.310Z,240
2016-06-20T14:04:42.298Z,235
2016-06-20T14:05:17.343Z,240
2016-06-20T14:06:17.284Z,250